Time;durP1;ratioP1;P1;durP2;ratioP2;P2;SDS_P1;SDS_P2;PMS_P1;PMS_P2;Temp;Humidity;BMP_temperature;BMP_pressure;BME280_temperature;BME280_humidity;BME280_pressure;Samples;Min_cycle;Max_cycle;Signal;HPM_P1;HPM_P2
2024/03/30 00:00:55;;;;;;;13.47;4.23;;;11.70;99.90;;;;;;5065520;28;20217;-54
2024/03/30 00:03:22;;;;;;;15.00;4.00;;;11.70;99.90;;;;;;5065111;28;20200;-54
2024/03/30 00:05:58;;;;;;;13.50;3.83;;;11.70;99.90;;;;;;5062427;28;20307;-55
2024/03/30 00:08:25;;;;;;;18.87;4.93;;;11.70;99.90;;;;;;5061245;28;20591;-56
2024/03/30 00:10:57;;;;;;;17.17;4.20;;;11.70;99.90;;;;;;5064236;28;20304;-55
2024/03/30 00:13:24;;;;;;;23.40;5.10;;;11.70;99.90;;;;;;5064946;28;20289;-55
2024/03/30 00:15:51;;;;;;;17.50;4.27;;;11.70;99.90;;;;;;5061905;28;20616;-55
2024/03/30 00:18:17;;;;;;;15.87;4.63;;;11.70;99.90;;;;;;5061104;28;20208;-55
2024/03/30 00:20:43;;;;;;;17.77;4.67;;;11.70;99.90;;;;;;5062583;28;20229;-55
2024/03/30 00:23:10;;;;;;;17.97;4.77;;;11.70;99.90;;;;;;5064361;28;20197;-55
2024/03/30 00:25:35;;;;;;;12.57;4.67;;;11.70;99.90;;;;;;5063903;28;20205;-55
2024/03/30 00:28:02;;;;;;;14.43;4.27;;;11.70;99.90;;;;;;5060942;28;20252;-55
2024/03/30 00:30:29;;;;;;;17.93;4.70;;;11.80;99.90;;;;;;5061128;28;20205;-53
2024/03/30 00:32:57;;;;;;;16.10;4.47;;;11.70;99.90;;;;;;5064390;28;20204;-53
2024/03/30 00:35:23;;;;;;;15.53;4.80;;;11.70;99.90;;;;;;5064186;28;20213;-54
2024/03/30 00:37:51;;;;;;;15.93;4.40;;;11.70;99.90;;;;;;5061907;28;20580;-56
2024/03/30 00:40:17;;;;;;;14.33;4.23;;;11.60;99.90;;;;;;5060829;28;20221;-54
2024/03/30 00:42:43;;;;;;;13.60;4.30;;;11.60;99.90;;;;;;5062167;28;20728;-56
2024/03/30 00:45:09;;;;;;;16.07;5.53;;;11.50;99.90;;;;;;5064062;28;20670;-54
2024/03/30 00:47:36;;;;;;;20.00;5.37;;;11.50;99.90;;;;;;5063222;28;20235;-54
2024/03/30 00:50:03;;;;;;;26.80;5.87;;;11.40;99.90;;;;;;5060575;28;20194;-54
2024/03/30 00:52:30;;;;;;;23.97;5.13;;;11.40;99.90;;;;;;5060763;28;20202;-54
2024/03/30 00:54:56;;;;;;;24.63;6.03;;;11.30;99.90;;;;;;5062990;28;20654;-54
2024/03/30 00:57:22;;;;;;;29.03;5.60;;;11.20;99.90;;;;;;5063780;28;20217;-53
2024/03/30 00:59:48;;;;;;;24.73;5.73;;;11.10;99.90;;;;;;5061588;28;20242;-54
2024/03/30 01:02:16;;;;;;;29.80;5.73;;;11.10;99.90;;;;;;5060647;28;20721;-55
2024/03/30 01:04:41;;;;;;;22.47;5.97;;;11.10;99.90;;;;;;5061434;28;20212;-54
2024/03/30 01:07:10;;;;;;;41.33;6.87;;;11.00;99.90;;;;;;5063941;28;20307;-56
2024/03/30 01:09:36;;;;;;;25.27;6.23;;;11.00;99.90;;;;;;5063387;28;20699;-54
2024/03/30 01:12:03;;;;;;;28.70;6.80;;;10.90;99.90;;;;;;5060405;28;20193;-54
2024/03/30 01:14:31;;;;;;;26.57;6.33;;;10.90;99.90;;;;;;5060338;28;20205;-54
2024/03/30 01:16:58;;;;;;;23.63;5.87;;;10.90;99.90;;;;;;5063524;28;20698;-55
2024/03/30 01:19:24;;;;;;;36.67;7.23;;;10.90;99.90;;;;;;5063501;28;20201;-55
2024/03/30 01:21:51;;;;;;;32.73;6.37;;;10.90;99.90;;;;;;5061358;28;20201;-54
2024/03/30 01:24:19;;;;;;;31.00;6.27;;;10.90;99.90;;;;;;5060392;28;20213;-54
2024/03/30 01:26:56;;;;;;;33.17;6.73;;;10.90;99.90;;;;;;5061398;28;20312;-54
2024/03/30 01:29:24;;;;;;;35.13;7.03;;;10.90;99.90;;;;;;5064037;28;20235;-56
2024/03/30 01:31:51;;;;;;;33.33;6.67;;;10.80;99.90;;;;;;5061044;28;20692;-54
2024/03/30 01:34:17;;;;;;;37.83;6.60;;;10.80;99.90;;;;;;5060225;28;20205;-54
2024/03/30 01:36:44;;;;;;;34.80;6.13;;;10.80;99.90;;;;;;5061138;28;20228;-54
2024/03/30 01:39:10;;;;;;;41.33;7.03;;;10.80;99.90;;;;;;5063493;28;20208;-56
2024/03/30 01:41:38;;;;;;;33.77;6.80;;;10.70;99.90;;;;;;5063138;28;20213;-55
2024/03/30 01:44:04;;;;;;;34.10;6.63;;;10.70;99.90;;;;;;5060617;28;20255;-55
2024/03/30 01:46:33;;;;;;;36.00;6.60;;;10.70;99.90;;;;;;5060217;28;20304;-57
2024/03/30 01:49:01;;;;;;;36.73;6.43;;;10.60;99.90;;;;;;5064243;28;20205;-55
2024/03/30 01:51:29;;;;;;;36.83;7.13;;;10.60;99.90;;;;;;5063414;28;20242;-55
2024/03/30 01:53:55;;;;;;;26.47;6.00;;;10.70;99.90;;;;;;5060333;28;20213;-54
2024/03/30 01:56:22;;;;;;;37.77;7.00;;;10.70;99.90;;;;;;5059883;28;20359;-55
2024/03/30 01:58:49;;;;;;;28.53;6.60;;;10.70;99.90;;;;;;5061232;28;20214;-54
2024/03/30 02:01:17;;;;;;;34.50;6.20;;;10.70;99.90;;;;;;5063277;28;20243;-55
2024/03/30 02:03:43;;;;;;;32.00;6.30;;;10.70;99.90;;;;;;5062314;28;20230;-55
2024/03/30 02:06:11;;;;;;;30.87;6.93;;;10.70;99.90;;;;;;5061283;28;20302;-55
2024/03/30 02:08:40;;;;;;;35.23;6.93;;;10.70;99.90;;;;;;5063777;28;20217;-55
2024/03/30 02:11:07;;;;;;;42.17;7.40;;;10.70;99.90;;;;;;5067110;28;20197;-54
2024/03/30 02:13:34;;;;;;;33.90;6.30;;;10.80;99.90;;;;;;5067068;28;20686;-54
2024/03/30 02:16:02;;;;;;;43.00;8.00;;;10.80;99.90;;;;;;5063408;28;20217;-54
2024/03/30 02:18:27;;;;;;;40.23;15.03;;;10.70;99.90;;;;;;5063419;28;20644;-55
2024/03/30 02:20:54;;;;;;;40.93;7.53;;;10.70;99.90;;;;;;5066011;28;20240;-54
2024/03/30 02:23:21;;;;;;;44.90;7.43;;;10.70;99.90;;;;;;5067254;28;20205;-54
2024/03/30 02:25:48;;;;;;;46.90;7.20;;;10.90;99.90;;;;;;5064985;28;20236;-55
2024/03/30 02:28:15;;;;;;;36.97;6.37;;;10.90;99.90;;;;;;5063525;28;20206;-55
2024/03/30 02:30:43;;;;;;;50.70;7.77;;;11.00;99.90;;;;;;5064202;28;20581;-55
2024/03/30 02:33:10;;;;;;;38.67;6.77;;;11.10;99.90;;;;;;5066898;28;20197;-55
2024/03/30 02:35:37;;;;;;;37.30;7.37;;;11.30;99.90;;;;;;5066575;28;20209;-55
2024/03/30 02:38:03;;;;;;;32.93;6.40;;;11.40;99.90;;;;;;5063072;28;20202;-56
2024/03/30 02:40:32;;;;;;;39.63;6.33;;;11.60;99.90;;;;;;5062976;28;20224;-56
2024/03/30 02:42:57;;;;;;;35.43;5.57;;;11.70;99.90;;;;;;5066246;28;20204;-55
2024/03/30 02:45:24;;;;;;;43.87;6.07;;;12.00;99.90;;;;;;5066505;28;20201;-55
2024/03/30 02:47:50;;;;;;;44.73;6.80;;;12.20;99.90;;;;;;5064358;28;20205;-54
2024/03/30 02:50:16;;;;;;;28.33;5.13;;;12.40;99.90;;;;;;5063064;28;20714;-55
2024/03/30 02:52:42;;;;;;;40.80;6.03;;;12.70;99.90;;;;;;5063704;28;20209;-54
2024/03/30 02:55:09;;;;;;;40.27;6.03;;;12.90;99.90;;;;;;5066651;28;20208;-54
2024/03/30 02:57:36;;;;;;;29.70;5.80;;;13.10;99.90;;;;;;5066095;28;20228;-55
2024/03/30 03:00:08;;;;;;;33.13;5.53;;;13.30;99.90;;;;;;5066182;28;20699;-55
2024/03/30 03:02:33;;;;;;;38.87;5.57;;;13.50;99.90;;;;;;5066298;28;20329;-56
2024/03/30 03:05:00;;;;;;;34.30;5.20;;;13.70;99.90;;;;;;5062962;28;20202;-56
2024/03/30 03:07:26;;;;;;;36.43;5.70;;;13.80;99.90;;;;;;5062436;28;20230;-55
2024/03/30 03:09:53;;;;;;;30.00;5.10;;;14.10;99.90;;;;;;5064879;28;20209;-55
2024/03/30 03:12:19;;;;;;;33.57;4.90;;;14.30;99.30;;;;;;5066035;28;20576;-55
2024/03/30 03:14:47;;;;;;;25.23;4.60;;;14.50;98.60;;;;;;5064856;28;20243;-55
2024/03/30 03:17:12;;;;;;;40.57;5.37;;;14.70;97.50;;;;;;5061378;28;20225;-55
2024/03/30 03:19:39;;;;;;;22.27;5.03;;;14.90;97.00;;;;;;5062666;28;20212;-55
2024/03/30 03:22:05;;;;;;;30.20;5.00;;;15.20;97.10;;;;;;5065606;28;20642;-54
2024/03/30 03:24:31;;;;;;;25.67;4.83;;;15.30;96.50;;;;;;5066247;28;20205;-55
2024/03/30 03:26:57;;;;;;;25.70;6.43;;;15.40;95.70;;;;;;5062730;28;20236;-54
2024/03/30 03:29:24;;;;;;;24.60;4.80;;;15.50;95.40;;;;;;5062409;28;20198;-55
2024/03/30 03:31:51;;;;;;;30.42;5.28;;;15.60;95.40;;;;;;5064008;28;20229;-55
2024/03/30 03:34:17;;;;;;;32.17;5.55;;;15.70;94.90;;;;;;5065641;28;20205;-55
2024/03/30 03:36:43;;;;;;;26.17;4.40;;;15.70;94.30;;;;;;5064345;28;20224;-55
2024/03/30 03:39:10;;;;;;;24.90;4.28;;;15.70;93.20;;;;;;5062335;28;20255;-55
2024/03/30 03:41:35;;;;;;;21.73;4.40;;;15.90;93.20;;;;;;5062120;28;20229;-56
2024/03/30 03:44:02;;;;;;;28.05;5.13;;;16.00;93.00;;;;;;5065356;28;20678;-55
2024/03/30 03:46:28;;;;;;;22.88;4.28;;;16.10;92.80;;;;;;5101052;22;20284;-59
2024/03/30 03:48:56;;;;;;;24.30;5.07;;;16.20;92.10;;;;;;5105800;27;20212;-60
2024/03/30 03:51:22;;;;;;;26.55;4.65;;;16.30;92.00;;;;;;5105897;28;20207;-60
2024/03/30 03:53:48;;;;;;;21.95;3.90;;;16.30;91.60;;;;;;5104323;27;20208;-60
2024/03/30 03:56:14;;;;;;;20.55;3.70;;;16.40;91.40;;;;;;5102526;28;20232;-60
2024/03/30 03:58:41;;;;;;;24.27;4.25;;;16.40;91.20;;;;;;5110716;28;20230;-60
2024/03/30 04:01:07;;;;;;;18.42;3.83;;;16.40;90.70;;;;;;5113876;28;20231;-60
2024/03/30 04:03:36;;;;;;;17.85;3.72;;;16.50;90.20;;;;;;5114032;28;20256;-60
2024/03/30 04:06:09;;;;;;;29.40;3.65;;;16.50;90.00;;;;;;5113713;28;20269;-60
2024/03/30 04:08:36;;;;;;;16.10;3.65;;;16.60;90.30;;;;;;5113752;28;20699;-60
2024/03/30 04:11:02;;;;;;;23.38;3.90;;;16.60;90.10;;;;;;5113928;28;20608;-60
2024/03/30 04:13:29;;;;;;;23.08;3.55;;;16.70;90.40;;;;;;5113883;28;20237;-59
2024/03/30 04:15:55;;;;;;;18.45;4.15;;;16.70;90.90;;;;;;5113514;28;20692;-60
2024/03/30 04:18:22;;;;;;;21.30;3.90;;;16.70;91.10;;;;;;5113566;28;20227;-61
2024/03/30 04:20:56;;;;;;;18.67;4.20;;;16.60;91.00;;;;;;5113633;28;20644;-60
2024/03/30 04:23:24;;;;;;;17.83;4.03;;;16.50;90.80;;;;;;5114497;28;20199;-61
2024/03/30 04:26:00;;;;;;;26.08;4.40;;;16.50;90.40;;;;;;5113933;28;20204;-60
2024/03/30 04:28:27;;;;;;;22.75;3.97;;;16.50;90.20;;;;;;5113397;28;20199;-60
2024/03/30 04:30:57;;;;;;;16.35;3.67;;;16.50;90.20;;;;;;5113376;28;20676;-60
2024/03/30 04:33:24;;;;;;;17.50;3.75;;;16.50;90.30;;;;;;5113548;28;20673;-60
2024/03/30 04:35:55;;;;;;;18.33;3.60;;;16.40;90.40;;;;;;5113343;28;20208;-60
2024/03/30 04:38:21;;;;;;;22.92;3.78;;;16.30;90.30;;;;;;5113204;28;20282;-60
2024/03/30 04:40:58;;;;;;;18.40;3.78;;;16.30;90.30;;;;;;5113270;28;20224;-60
2024/03/30 04:43:24;;;;;;;16.20;3.42;;;16.20;90.30;;;;;;5113268;28;20202;-61
2024/03/30 04:45:50;;;;;;;26.10;3.92;;;16.10;90.20;;;;;;5113012;28;20611;-60
2024/03/30 04:48:18;;;;;;;22.25;4.28;;;16.00;90.10;;;;;;5113218;28;20202;-61
2024/03/30 04:50:44;;;;;;;17.27;3.33;;;16.00;90.10;;;;;;5112925;28;20664;-60
2024/03/30 04:53:16;;;;;;;22.27;4.32;;;15.90;90.30;;;;;;5112967;28;20203;-59
2024/03/30 04:55:52;;;;;;;17.95;3.95;;;15.90;90.50;;;;;;5112794;28;20204;-60
2024/03/30 04:58:25;;;;;;;20.35;3.60;;;15.80;90.60;;;;;;5113138;28;20256;-59
2024/03/30 05:00:53;;;;;;;19.73;3.85;;;15.70;90.80;;;;;;5113032;28;20269;-59
2024/03/30 05:03:20;;;;;;;21.40;4.03;;;15.60;90.80;;;;;;5113083;28;20195;-59
2024/03/30 05:05:47;;;;;;;24.63;4.10;;;15.50;90.80;;;;;;5112710;28;20204;-59
2024/03/30 05:08:15;;;;;;;20.97;3.63;;;15.50;90.90;;;;;;5112479;28;20286;-59
2024/03/30 05:10:42;;;;;;;18.80;4.60;;;15.50;90.70;;;;;;5112920;28;20206;-59
2024/03/30 05:13:09;;;;;;;19.98;3.35;;;15.50;90.80;;;;;;5112868;28;20278;-57
2024/03/30 05:15:38;;;;;;;23.63;3.70;;;15.50;90.80;;;;;;5113024;28;20206;-58
2024/03/30 05:18:05;;;;;;;29.50;3.80;;;15.50;91.00;;;;;;5112418;28;20246;-58
2024/03/30 05:20:49;;;;;;;27.20;4.17;;;15.60;91.30;;;;;;5112762;28;20623;-57
2024/03/30 05:23:18;;;;;;;19.00;4.60;;;15.60;91.30;;;;;;5105784;28;20196;-58
2024/03/30 05:25:44;;;;;;;17.10;4.30;;;15.60;91.80;;;;;;5112389;28;20728;-57
2024/03/30 05:28:11;;;;;;;25.60;4.87;;;15.50;94.30;;;;;;5112604;28;20282;-57
2024/03/30 05:30:38;;;;;;;25.60;3.97;;;15.40;95.70;;;;;;5113166;28;20224;-57
2024/03/30 05:33:05;;;;;;;20.30;4.50;;;15.30;96.60;;;;;;5112440;28;20290;-58
2024/03/30 05:35:31;;;;;;;23.73;4.93;;;15.20;97.00;;;;;;5112595;28;20204;-56
2024/03/30 05:37:58;;;;;;;24.35;4.38;;;15.30;97.50;;;;;;5112356;28;20222;-57
2024/03/30 05:40:24;;;;;;;22.77;4.90;;;15.20;97.90;;;;;;5112059;28;20265;-57
2024/03/30 05:42:52;;;;;;;19.80;4.03;;;15.30;98.00;;;;;;5112259;28;20230;-57
2024/03/30 05:45:18;;;;;;;28.73;4.93;;;15.30;98.20;;;;;;5112396;28;20322;-56
2024/03/30 05:47:46;;;;;;;31.33;4.93;;;15.20;98.90;;;;;;5111731;28;20280;-58
2024/03/30 05:50:12;;;;;;;19.05;4.18;;;15.10;99.60;;;;;;5112254;28;20617;-57
2024/03/30 05:52:39;;;;;;;27.40;4.60;;;15.10;99.50;;;;;;5112299;28;20788;-56
2024/03/30 05:55:05;;;;;;;31.95;5.28;;;15.30;99.40;;;;;;5112349;28;20203;-57
2024/03/30 05:57:32;;;;;;;27.95;5.35;;;15.50;99.30;;;;;;5111970;28;20268;-57
2024/03/30 05:59:57;;;;;;;27.40;4.65;;;15.60;99.50;;;;;;5112084;28;20268;-56
2024/03/30 06:02:25;;;;;;;28.83;4.90;;;15.80;99.80;;;;;;5112131;28;20698;-57
2024/03/30 06:04:52;;;;;;;25.00;5.32;;;16.00;99.70;;;;;;5112430;28;20302;-57
2024/03/30 06:07:19;;;;;;;29.15;5.20;;;16.20;99.40;;;;;;5111926;28;20284;-59
2024/03/30 06:09:45;;;;;;;24.50;4.25;;;16.70;98.90;;;;;;5112128;28;20211;-57
2024/03/30 06:12:12;;;;;;;30.92;4.43;;;17.00;98.20;;;;;;5111998;28;20195;-57
2024/03/30 06:14:37;;;;;;;20.85;4.63;;;17.30;97.60;;;;;;5112032;28;20252;-57
2024/03/30 06:17:04;;;;;;;25.35;4.63;;;17.60;97.30;;;;;;5111383;28;20216;-58
2024/03/30 06:19:30;;;;;;;21.20;4.35;;;17.90;97.10;;;;;;5112123;28;20233;-57
2024/03/30 06:21:58;;;;;;;32.97;5.15;;;18.10;96.20;;;;;;5112212;28;20219;-58
2024/03/30 06:24:23;;;;;;;22.75;4.50;;;18.40;96.70;;;;;;5111967;28;20351;-57
2024/03/30 06:26:50;;;;;;;28.58;5.18;;;18.70;96.40;;;;;;5111573;28;20223;-58
2024/03/30 06:29:16;;;;;;;27.98;5.13;;;19.00;96.40;;;;;;5112074;28;20253;-60
2024/03/30 06:31:42;;;;;;;25.13;5.30;;;19.30;96.10;;;;;;5109709;28;20207;-61
2024/03/30 06:34:08;;;;;;;30.33;5.38;;;19.60;95.60;;;;;;5103783;28;20618;-59
2024/03/30 06:36:35;;;;;;;23.23;4.90;;;19.90;96.00;;;;;;5111326;28;20230;-59
2024/03/30 06:39:03;;;;;;;23.63;4.85;;;20.10;94.40;;;;;;5111685;28;20581;-58
2024/03/30 06:44:15;;;;;;;31.45;7.13;;;20.30;94.90;;;;;;5104233;28;20324;-59
2024/03/30 06:46:42;;;;;;;38.40;6.03;;;20.50;93.80;;;;;;5111380;28;20231;-58
2024/03/30 06:49:08;;;;;;;39.15;5.70;;;20.70;91.50;;;;;;5111783;28;20199;-59
2024/03/30 06:51:35;;;;;;;26.80;5.15;;;21.00;90.50;;;;;;5111855;28;20230;-58
2024/03/30 06:54:02;;;;;;;28.30;5.47;;;21.30;88.50;;;;;;5114524;28;20218;-59
2024/03/30 06:56:29;;;;;;;30.25;4.93;;;21.70;82.50;;;;;;5115416;28;20222;-59
2024/03/30 06:58:55;;;;;;;31.42;5.40;;;22.00;79.20;;;;;;5114983;28;20673;-58
2024/03/30 07:01:23;;;;;;;30.27;4.82;;;22.30;79.10;;;;;;5115573;28;20215;-59
2024/03/30 07:03:49;;;;;;;25.23;5.47;;;22.60;75.90;;;;;;5115225;28;20211;-59
2024/03/30 07:06:16;;;;;;;28.05;5.72;;;22.90;76.40;;;;;;5115167;28;20234;-58
2024/03/30 07:08:41;;;;;;;29.98;5.75;;;23.00;73.80;;;;;;5115046;28;20207;-58
2024/03/30 07:11:10;;;;;;;31.13;5.78;;;23.00;73.50;;;;;;5114993;28;20196;-58
2024/03/30 07:13:35;;;;;;;28.83;4.72;;;23.00;69.70;;;;;;5115125;28;20227;-60
2024/03/30 07:16:02;;;;;;;31.35;5.50;;;22.90;68.80;;;;;;5114955;28;20223;-58
2024/03/30 07:18:28;;;;;;;34.95;5.82;;;22.70;77.70;;;;;;5114755;28;20203;-59
2024/03/30 07:20:54;;;;;;;33.17;5.90;;;22.40;70.70;;;;;;5114886;28;20223;-59
2024/03/30 07:23:20;;;;;;;29.02;5.53;;;22.10;70.40;;;;;;5114921;28;20211;-58
2024/03/30 07:25:47;;;;;;;30.45;5.80;;;21.80;73.20;;;;;;5114707;28;20200;-59
2024/03/30 07:28:14;;;;;;;34.05;5.28;;;21.40;74.40;;;;;;5114516;28;20669;-59
2024/03/30 07:30:43;;;;;;;32.38;5.03;;;21.20;74.50;;;;;;5115122;28;20211;-59
2024/03/30 07:33:09;;;;;;;32.13;5.22;;;20.90;74.10;;;;;;5114739;28;20195;-59
2024/03/30 07:35:35;;;;;;;37.55;5.35;;;20.60;74.00;;;;;;5114776;28;20200;-60
2024/03/30 07:38:02;;;;;;;39.92;5.60;;;20.30;74.40;;;;;;5114505;28;20223;-59
2024/03/30 07:40:29;;;;;;;29.00;5.20;;;20.10;76.00;;;;;;5114550;28;20223;-59
2024/03/30 07:42:55;;;;;;;34.85;9.48;;;20.00;75.10;;;;;;5114349;28;20223;-59
2024/03/30 07:45:23;;;;;;;34.33;6.50;;;19.90;74.20;;;;;;5114763;27;20202;-60
2024/03/30 07:47:49;;;;;;;29.42;5.63;;;19.90;75.10;;;;;;5113661;28;20238;-58
2024/03/30 07:50:16;;;;;;;35.58;6.10;;;19.90;74.80;;;;;;5114257;28;20199;-60
2024/03/30 07:52:44;;;;;;;37.35;5.78;;;20.00;74.20;;;;;;5114231;28;20203;-58
2024/03/30 07:55:11;;;;;;;39.17;6.60;;;20.10;73.70;;;;;;5114007;28;20200;-59
2024/03/30 07:57:36;;;;;;;35.63;5.88;;;20.20;73.30;;;;;;5113781;28;20226;-60
2024/03/30 08:00:04;;;;;;;36.83;5.53;;;20.30;72.50;;;;;;5114024;28;20199;-59
2024/03/30 08:02:31;;;;;;;27.38;4.97;;;20.40;73.70;;;;;;5114143;28;20258;-60
2024/03/30 08:04:57;;;;;;;33.00;4.75;;;20.40;73.70;;;;;;5113636;28;20589;-59
2024/03/30 08:07:23;;;;;;;37.72;4.97;;;20.40;74.30;;;;;;5113809;28;20627;-60
2024/03/30 08:09:49;;;;;;;32.25;5.60;;;20.50;74.10;;;;;;5113929;28;20199;-59
2024/03/30 08:12:16;;;;;;;30.30;5.72;;;20.50;74.70;;;;;;5114013;28;20196;-60
2024/03/30 08:14:42;;;;;;;21.20;4.93;;;20.40;76.10;;;;;;5113690;28;20203;-60
2024/03/30 08:17:08;;;;;;;34.28;5.22;;;20.30;77.60;;;;;;5113343;28;20220;-58
2024/03/30 08:19:36;;;;;;;30.00;5.80;;;20.20;79.00;;;;;;5113762;28;20203;-58
2024/03/30 08:22:02;;;;;;;33.97;5.32;;;20.00;79.30;;;;;;5113214;28;20251;-58
2024/03/30 08:24:28;;;;;;;30.20;5.25;;;20.00;79.80;;;;;;5113534;28;20285;-58
2024/03/30 08:26:54;;;;;;;29.83;5.82;;;19.80;80.70;;;;;;5113160;28;20227;-58
2024/03/30 08:29:21;;;;;;;27.35;5.22;;;19.80;83.20;;;;;;5113676;28;20196;-58
2024/03/30 08:31:47;;;;;;;23.90;5.20;;;19.70;83.00;;;;;;5113411;28;20613;-58
2024/03/30 08:34:13;;;;;;;33.15;6.22;;;19.60;86.10;;;;;;5113441;28;20248;-59
2024/03/30 08:36:40;;;;;;;36.83;5.78;;;19.30;84.90;;;;;;5112966;28;20223;-58
2024/03/30 08:39:07;;;;;;;28.52;5.30;;;19.20;86.10;;;;;;5113404;28;20254;-58
2024/03/30 08:41:33;;;;;;;29.98;5.15;;;19.10;87.90;;;;;;5112926;28;20285;-58
2024/03/30 08:44:02;;;;;;;28.58;5.25;;;19.10;89.20;;;;;;5112925;28;20199;-58
2024/03/30 08:46:28;;;;;;;30.85;5.43;;;19.10;90.60;;;;;;5113061;28;20272;-60
2024/03/30 08:49:03;;;;;;;24.02;5.30;;;19.10;91.50;;;;;;5112588;27;20208;-60
2024/03/30 08:51:29;;;;;;;37.35;5.78;;;19.00;92.50;;;;;;5113114;28;20195;-59
2024/03/30 08:54:01;;;;;;;31.48;6.13;;;18.80;93.20;;;;;;5113131;28;20207;-59
2024/03/30 08:56:28;;;;;;;30.73;5.97;;;18.60;93.60;;;;;;5113450;28;20219;-59
2024/03/30 08:58:55;;;;;;;38.38;6.25;;;18.60;94.20;;;;;;5113088;28;20222;-60
2024/03/30 09:01:21;;;;;;;39.80;7.00;;;18.60;94.90;;;;;;5113441;28;20272;-60
2024/03/30 09:03:48;;;;;;;37.53;5.95;;;18.50;95.70;;;;;;5113002;28;20203;-60
2024/03/30 09:06:13;;;;;;;34.72;6.30;;;18.40;96.30;;;;;;5104713;28;20224;-60
2024/03/30 09:08:40;;;;;;;24.83;4.85;;;18.30;96.60;;;;;;5112570;28;20718;-59
2024/03/30 09:11:07;;;;;;;44.85;6.50;;;18.10;96.40;;;;;;5111194;28;20214;-58
2024/03/30 09:13:34;;;;;;;27.77;5.72;;;18.10;97.40;;;;;;5112337;28;20260;-60
2024/03/30 09:16:00;;;;;;;30.15;6.13;;;18.00;97.80;;;;;;5111409;28;20273;-60
2024/03/30 09:18:26;;;;;;;30.52;6.22;;;18.00;98.00;;;;;;5111972;28;20203;-60
2024/03/30 09:20:52;;;;;;;42.17;5.80;;;18.00;97.90;;;;;;5112090;28;20856;-60
2024/03/30 09:23:19;;;;;;;33.53;6.10;;;18.00;98.10;;;;;;5112318;28;20223;-60
2024/03/30 09:25:45;;;;;;;34.80;6.57;;;18.20;98.20;;;;;;5111761;28;20630;-60
2024/03/30 09:28:12;;;;;;;34.60;6.45;;;18.30;98.60;;;;;;5112230;28;20195;-60
2024/03/30 09:30:38;;;;;;;36.90;6.18;;;18.30;99.00;;;;;;5112360;28;20209;-59
2024/03/30 09:33:05;;;;;;;38.55;6.05;;;18.30;98.80;;;;;;5112038;27;20533;-59
2024/03/30 09:35:31;;;;;;;26.00;5.32;;;18.30;98.00;;;;;;5112055;28;20203;-59
2024/03/30 09:37:59;;;;;;;30.52;6.55;;;18.40;97.40;;;;;;5111128;28;20227;-59
2024/03/30 09:40:25;;;;;;;34.42;6.13;;;18.30;97.40;;;;;;5112036;28;20622;-59
2024/03/30 09:42:52;;;;;;;32.17;6.03;;;18.30;96.40;;;;;;5111814;28;20224;-59
2024/03/30 09:45:20;;;;;;;33.85;6.57;;;18.40;97.60;;;;;;5111560;28;20702;-59
2024/03/30 09:47:49;;;;;;;31.75;6.93;;;18.40;97.50;;;;;;5111608;28;20813;-60
2024/03/30 09:50:16;;;;;;;29.55;6.97;;;18.30;98.20;;;;;;5103384;28;20196;-61
2024/03/30 09:52:44;;;;;;;24.65;5.55;;;18.30;97.60;;;;;;5112269;28;20226;-60
2024/03/30 09:55:14;;;;;;;36.38;7.38;;;18.40;96.80;;;;;;5111667;28;20212;-61
2024/03/30 09:57:41;;;;;;;27.20;5.72;;;18.50;97.60;;;;;;5111445;28;20223;-60
2024/03/30 10:00:11;;;;;;;35.05;5.97;;;18.60;97.00;;;;;;5111755;28;20207;-62
2024/03/30 10:02:39;;;;;;;36.20;6.45;;;18.60;96.80;;;;;;5111308;28;20765;-61
2024/03/30 10:05:07;;;;;;;43.58;6.78;;;18.50;95.00;;;;;;5110072;28;20219;-61
2024/03/30 10:07:36;;;;;;;32.00;5.80;;;18.60;95.70;;;;;;5111446;28;20696;-60
2024/03/30 10:10:07;;;;;;;34.42;6.18;;;18.60;95.00;;;;;;5111709;28;20732;-60
2024/03/30 10:12:52;;;;;;;29.45;6.30;;;18.70;94.70;;;;;;5111615;28;20668;-60
2024/03/30 10:15:23;;;;;;;33.30;5.93;;;18.70;94.60;;;;;;5108091;28;20203;-60
2024/03/30 10:17:52;;;;;;;45.40;13.25;;;18.80;94.70;;;;;;5111368;28;20704;-59
2024/03/30 10:20:18;;;;;;;36.22;6.47;;;18.90;93.90;;;;;;5103680;28;20257;-59
2024/03/30 10:22:45;;;;;;;29.10;5.70;;;18.90;93.10;;;;;;5111315;28;20231;-58
2024/03/30 10:25:11;;;;;;;31.20;6.13;;;19.00;93.10;;;;;;5111646;28;20618;-60
2024/03/30 10:27:38;;;;;;;44.78;7.78;;;19.00;93.10;;;;;;5113702;28;20230;-60
2024/03/30 10:30:06;;;;;;;42.05;7.50;;;19.00;92.80;;;;;;5115926;28;20444;-60
2024/03/30 10:32:33;;;;;;;29.90;7.30;;;19.00;92.70;;;;;;5115633;28;20188;-60
2024/03/30 10:35:02;;;;;;;41.05;7.13;;;19.10;92.50;;;;;;5115327;28;20199;-60
2024/03/30 10:37:29;;;;;;;36.35;7.35;;;19.20;92.10;;;;;;5114548;28;20616;-59
2024/03/30 10:39:55;;;;;;;41.40;7.13;;;19.50;92.10;;;;;;5115139;28;20233;-60
2024/03/30 10:42:21;;;;;;;37.63;7.68;;;19.80;91.60;;;;;;5115530;28;20215;-60
2024/03/30 10:44:52;;;;;;;44.10;7.95;;;20.20;90.90;;;;;;5115280;28;20628;-60
2024/03/30 10:47:19;;;;;;;42.03;7.22;;;20.70;90.50;;;;;;5106492;28;20708;-60
2024/03/30 10:49:44;;;;;;;61.13;23.38;;;20.90;89.40;;;;;;5114942;28;20207;-61
2024/03/30 10:52:15;;;;;;;62.50;19.98;;;21.20;89.30;;;;;;5114225;28;20199;-62
2024/03/30 10:54:41;;;;;;;49.63;13.35;;;21.30;88.30;;;;;;5115277;28;20203;-60
2024/03/30 10:57:09;;;;;;;43.72;8.43;;;21.50;88.40;;;;;;5114416;28;20602;-61
2024/03/30 10:59:40;;;;;;;43.08;9.15;;;21.60;88.50;;;;;;5115002;28;20211;-61
2024/03/30 11:02:16;;;;;;;31.98;8.10;;;21.80;88.90;;;;;;5114799;28;20235;-61
2024/03/30 11:04:42;;;;;;;34.97;8.52;;;22.00;88.50;;;;;;5114659;28;20203;-60
2024/03/30 11:07:10;;;;;;;37.80;8.90;;;22.20;87.70;;;;;;5114766;28;20230;-60
2024/03/30 11:09:38;;;;;;;49.90;8.73;;;22.30;87.30;;;;;;5114786;28;20594;-61
2024/03/30 11:12:06;;;;;;;41.05;8.25;;;22.40;86.20;;;;;;5114662;28;20212;-60
2024/03/30 11:14:32;;;;;;;45.20;11.77;;;22.60;85.00;;;;;;5114989;28;20291;-61
2024/03/30 11:17:03;;;;;;;45.65;7.50;;;22.60;83.50;;;;;;5114159;28;20306;-61
2024/03/30 11:19:36;;;;;;;44.80;8.60;;;22.80;82.30;;;;;;5114923;28;20261;-60
2024/03/30 11:22:10;;;;;;;50.25;8.80;;;22.80;79.70;;;;;;5114645;28;20607;-61
2024/03/30 11:24:46;;;;;;;44.65;7.10;;;22.90;80.50;;;;;;5114719;28;20772;-60
2024/03/30 11:27:19;;;;;;;40.85;8.45;;;23.10;79.80;;;;;;5114249;28;20227;-60
2024/03/30 11:29:54;;;;;;;40.33;7.32;;;23.40;79.50;;;;;;5114566;28;20199;-59
2024/03/30 11:32:26;;;;;;;47.05;7.45;;;23.60;79.40;;;;;;5106903;28;20187;-60
2024/03/30 11:34:56;;;;;;;39.10;7.07;;;23.70;78.20;;;;;;5114236;28;20673;-58
2024/03/30 11:37:27;;;;;;;35.30;7.57;;;23.70;77.90;;;;;;5114082;28;20215;-60
2024/03/30 11:40:04;;;;;;;46.05;7.75;;;23.80;78.10;;;;;;5113599;28;20203;-61
2024/03/30 11:42:43;;;;;;;43.47;7.38;;;23.90;77.10;;;;;;5114347;28;20215;-61
2024/03/30 11:45:11;;;;;;;31.55;7.40;;;24.00;76.20;;;;;;5114280;28;20203;-61
2024/03/30 11:47:39;;;;;;;45.90;10.27;;;24.00;75.10;;;;;;5113832;28;20219;-61
2024/03/30 11:50:06;;;;;;;35.75;8.55;;;24.00;75.50;;;;;;5113957;28;20234;-61
2024/03/30 11:52:43;;;;;;;36.47;7.45;;;24.10;73.90;;;;;;5114006;28;20211;-61
2024/03/30 11:55:10;;;;;;;37.05;8.07;;;24.20;73.60;;;;;;5113688;28;20728;-61
2024/03/30 11:57:37;;;;;;;45.10;7.65;;;24.30;73.80;;;;;;5113823;28;20232;-61
2024/03/30 12:00:04;;;;;;;35.35;7.47;;;24.40;73.90;;;;;;5113948;28;20580;-61
2024/03/30 12:02:32;;;;;;;44.15;6.97;;;24.40;73.90;;;;;;5113938;28;20215;-61
2024/03/30 12:05:01;;;;;;;43.75;7.20;;;24.40;74.30;;;;;;5113757;28;20207;-63
2024/03/30 12:07:34;;;;;;;44.85;8.10;;;24.40;75.80;;;;;;5113430;28;20696;-61
2024/03/30 12:10:01;;;;;;;34.03;7.30;;;24.40;84.50;;;;;;5113718;28;20299;-61
2024/03/30 12:12:30;;;;;;;38.60;7.63;;;24.20;89.60;;;;;;5113879;28;20550;-60
2024/03/30 12:14:55;;;;;;;34.38;7.53;;;24.00;91.90;;;;;;5113577;28;20211;-60
2024/03/30 12:17:22;;;;;;;42.83;9.88;;;23.80;92.60;;;;;;5113583;28;20222;-60
2024/03/30 12:19:50;;;;;;;34.92;7.60;;;23.70;93.70;;;;;;5113766;28;20299;-60
2024/03/30 12:22:17;;;;;;;34.40;7.70;;;23.50;94.90;;;;;;5113578;28;20290;-60
2024/03/30 12:24:42;;;;;;;30.42;6.85;;;23.20;95.60;;;;;;5113715;28;20290;-60
2024/03/30 12:27:09;;;;;;;37.10;7.28;;;23.00;95.70;;;;;;5113115;28;20310;-60
2024/03/30 12:29:37;;;;;;;38.40;8.25;;;22.80;95.80;;;;;;5113544;28;20210;-60
2024/03/30 12:32:05;;;;;;;36.13;7.65;;;22.50;96.20;;;;;;5113168;28;20199;-60
2024/03/30 12:34:31;;;;;;;37.10;8.05;;;22.30;96.80;;;;;;5113181;28;20207;-61
2024/03/30 12:36:58;;;;;;;44.88;8.63;;;22.20;97.80;;;;;;5113067;28;20231;-61
2024/03/30 12:39:23;;;;;;;32.55;7.78;;;22.10;98.50;;;;;;5113270;28;20196;-61